Vernon Hills, Illinois
Current Conditions -  °F | °C
As of 1:32 PM on Tuesday 21 Oct 2014 (Local Time) from KPWK Reporting Station
Overcast Overcast  
Wind Chill: 51°   Ceiling: 2900
Heat Index: 51°   Visibility: 10mi
Dew Point: 40°   Wind: 13mph
Humidity: 66%   Direction: 10°N
Pressure: 30.2"   Gusts: 21mph
Location:  42.22°N, 87.97°W
Report Text: KPWK 211832Z 01011G18KT 10SM BKN029 OVC041 11/04 A3020 RMK AO2 T01060044
Loading
Personal Weather Stations






























Interactive Weather Map
Tropical Storm Tracking
New forecast layout! Learn more

10-Day Weather Forecast

Advertisements
Track Severe Weather on mobile